Time;durP1;ratioP1;P1;durP2;ratioP2;P2;SDS_P1;SDS_P2;PMS_P1;PMS_P2;Temp;Humidity;BMP_temperature;BMP_pressure;BME280_temperature;BME280_humidity;BME280_pressure;Samples;Min_cycle;Max_cycle;Signal;HPM_P1;HPM_P2
2024/01/30 00:00:46;;;;;;;3.20;2.30;;;;;;;;;;4994108;28;20496;-87
2024/01/30 00:03:12;;;;;;;2.78;2.05;;;2.60;99.90;;;;;;5000511;28;20453;-87
2024/01/30 00:05:38;;;;;;;3.77;2.67;;;;;;;;;;4974223;28;20175;-87
2024/01/30 00:08:04;;;;;;;10.70;3.37;;;;;;;;;;4991199;28;20194;-88
2024/01/30 00:10:30;;;;;;;3.17;2.33;;;;;;;;;;4985761;28;20502;-88
2024/01/30 00:12:56;;;;;;;3.70;2.83;;;;;;;;;;4991668;28;20176;-89
2024/01/30 00:15:22;;;;;;;4.25;2.65;;;;;;;;;;4976214;28;20203;-86
2024/01/30 00:17:48;;;;;;;4.95;2.92;;;;;;;;;;4970457;28;20254;-88
2024/01/30 00:20:14;;;;;;;3.53;2.58;;;;;;;;;;4993518;28;20266;-87
2024/01/30 00:22:40;;;;;;;6.83;2.20;;;;;;;;;;4990978;28;20593;-88
2024/01/30 00:25:06;;;;;;;3.90;3.40;;;;;;;;;;4991498;28;20649;-87
2024/01/30 00:27:32;;;;;;;7.97;4.22;;;;;;;;;;4993798;28;21073;-88
2024/01/30 00:29:58;;;;;;;9.37;4.67;;;;;;;;;;4984041;28;20250;-88
2024/01/30 00:32:24;;;;;;;6.63;4.23;;;;;;;;;;4994640;28;20437;-86
2024/01/30 00:34:50;;;;;;;6.73;2.10;;;;;;;;;;4996060;28;20469;-88
2024/01/30 00:37:16;;;;;;;2.42;2.22;;;;;;;;;;4978532;28;20477;-87
2024/01/30 00:39:42;;;;;;;4.78;1.98;;;2.50;99.90;;;;;;4990249;28;20210;-88
2024/01/30 00:42:08;;;;;;;3.03;2.30;;;;;;;;;;4993985;28;20205;-87
2024/01/30 00:44:38;;;;;;;3.43;2.60;;;2.40;99.90;;;;;;4979300;28;20669;-87
2024/01/30 00:47:04;;;;;;;6.72;3.92;;;;;;;;;;4992211;28;20473;-88
2024/01/30 00:49:30;;;;;;;2.67;2.15;;;;;;;;;;4991770;28;20223;-88
2024/01/30 00:51:55;;;;;;;2.30;2.05;;;2.30;99.90;;;;;;4993052;28;20283;-89
2024/01/30 00:54:21;;;;;;;4.00;2.67;;;;;;;;;;4976702;28;20310;-87
2024/01/30 00:56:47;;;;;;;8.43;5.27;;;2.40;99.90;;;;;;4994785;28;20199;-86
2024/01/30 00:59:12;;;;;;;7.03;3.10;;;;;;;;;;4994666;28;20465;-88
2024/01/30 01:01:39;;;;;;;6.57;3.43;;;;;;;;;;4992756;28;21230;-87
2024/01/30 01:04:04;;;;;;;4.97;3.15;;;2.30;99.90;;;;;;4978761;28;20450;-88
2024/01/30 01:06:30;;;;;;;6.80;3.83;;;;;;;;;;4994829;28;20193;-87
2024/01/30 01:08:56;;;;;;;6.63;2.70;;;;;;;;;;4971915;28;20318;-88
2024/01/30 01:11:22;;;;;;;3.07;2.80;;;;;;;;;;4989467;28;20442;-86
2024/01/30 01:13:48;;;;;;;4.70;3.10;;;;;;;;;;4993333;28;20458;-87
2024/01/30 01:16:14;;;;;;;6.65;4.50;;;;;;;;;;4972261;28;20441;-86
2024/01/30 01:18:40;;;;;;;5.50;2.40;;;;;;;;;;4994537;28;20187;-87
2024/01/30 01:21:06;;;;;;;4.20;2.80;;;;;;;;;;4979096;28;20472;-87
2024/01/30 01:23:32;;;;;;;3.10;1.57;;;;;;;;;;4994731;28;20435;-87
2024/01/30 01:25:59;;;;;;;3.03;1.43;;;;;;;;;;4997456;28;20507;-88
2024/01/30 01:28:25;;;;;;;3.35;2.83;;;;;;;;;;4999867;28;20461;-88
2024/01/30 01:30:51;;;;;;;9.17;3.17;;;;;;;;;;5003417;28;20210;-88
2024/01/30 01:33:17;;;;;;;9.43;3.87;;;;;;;;;;5003098;28;20446;-87
2024/01/30 01:35:43;;;;;;;3.60;3.25;;;;;;;;;;4999302;28;20966;-88
2024/01/30 01:38:09;;;;;;;3.80;2.30;;;;;;;;;;4992205;28;20235;-87
2024/01/30 01:40:35;;;;;;;2.22;2.03;;;;;;;;;;4975709;28;20510;-88
2024/01/30 01:43:03;;;;;;;6.75;3.08;;;2.10;99.90;;;;;;4975778;28;20192;-88
2024/01/30 01:45:29;;;;;;;10.60;3.65;;;;;;;;;;4975914;28;20415;-87
2024/01/30 01:47:55;;;;;;;3.27;2.10;;;;;;;;;;4995001;28;20187;-87
2024/01/30 01:50:22;;;;;;;5.63;2.80;;;2.10;99.90;;;;;;4995059;28;20462;-87
2024/01/30 01:52:48;;;;;;;5.57;3.58;;;;;;;;;;4995173;28;20481;-88
2024/01/30 01:55:17;;;;;;;5.65;2.80;;;2.00;99.90;;;;;;4978254;28;20215;-87
2024/01/30 01:57:43;;;;;;;11.15;3.38;;;;;;;;;;4996073;28;20197;-89
2024/01/30 02:00:10;;;;;;;10.70;4.13;;;2.10;99.90;;;;;;4995269;28;20218;-87
2024/01/30 02:02:36;;;;;;;5.78;3.38;;;2.00;99.90;;;;;;4975518;28;20461;-87
2024/01/30 02:05:02;;;;;;;6.63;3.67;;;2.10;99.90;;;;;;4977215;28;20199;-88
2024/01/30 02:07:28;;;;;;;5.77;2.37;;;;;;;;;;4995833;28;20569;-87
2024/01/30 02:09:54;;;;;;;10.77;3.75;;;;;;;;;;4978089;28;20446;-87
2024/01/30 02:12:20;;;;;;;19.80;1.65;;;;;;;;;;4973457;28;20198;-88
2024/01/30 02:14:47;;;;;;;3.37;2.77;;;;;;;;;;4980169;28;20211;-88
2024/01/30 02:17:13;;;;;;;5.93;2.22;;;2.00;99.90;;;;;;4993172;28;20445;-87
2024/01/30 02:19:39;;;;;;;1.13;1.05;;;;;;;;;;4978123;28;20223;-87
2024/01/30 02:22:05;;;;;;;5.22;3.50;;;1.90;99.90;;;;;;4981693;28;20207;-88
2024/01/30 02:24:32;;;;;;;1.90;1.80;;;;;;;;;;4997873;28;20238;-88
2024/01/30 02:26:58;;;;;;;9.13;3.72;;;;;;;;;;4978961;28;20197;-87
2024/01/30 02:29:24;;;;;;;3.45;2.78;;;;;;;;;;4986080;28;20247;-88
2024/01/30 02:31:50;;;;;;;12.00;4.53;;;;;;;;;;5004661;28;20226;-88
2024/01/30 02:34:16;;;;;;;6.90;4.95;;;;;;;;;;4980128;28;20550;-87
2024/01/30 02:36:45;;;;;;;13.00;5.50;;;1.90;99.90;;;;;;4999004;28;20193;-87
2024/01/30 02:39:11;;;;;;;14.43;6.35;;;;;;;;;;4996154;28;20262;-88
2024/01/30 02:41:37;;;;;;;8.80;5.00;;;;;;;;;;4981019;28;20179;-88
2024/01/30 02:44:03;;;;;;;9.02;5.13;;;;;;;;;;4992910;28;20462;-87
2024/01/30 02:46:29;;;;;;;7.43;4.50;;;1.90;99.90;;;;;;4979200;28;20294;-88
2024/01/30 02:48:55;;;;;;;8.47;5.07;;;;;;;;;;4975808;28;20218;-88
2024/01/30 02:51:21;;;;;;;11.67;6.43;;;;;;;;;;4991320;28;22299;-88
2024/01/30 02:53:47;;;;;;;8.07;4.78;;;;;;;;;;4987456;28;21887;-88
2024/01/30 02:56:13;;;;;;;8.30;4.23;;;;;;;;;;4985776;28;20191;-88
2024/01/30 02:58:40;;;;;;;6.03;4.25;;;1.90;99.90;;;;;;4991183;28;21729;-87
2024/01/30 03:01:06;;;;;;;11.05;4.97;;;1.80;99.90;;;;;;4992851;28;20215;-87
2024/01/30 03:03:32;;;;;;;7.88;4.68;;;1.80;99.90;;;;;;4976002;28;20294;-87
2024/01/30 03:05:58;;;;;;;5.43;4.60;;;;;;;;;;4994721;28;20214;-88
2024/01/30 03:08:24;;;;;;;7.50;4.90;;;;;;;;;;4991930;28;20220;-88
2024/01/30 03:10:49;;;;;;;6.90;4.23;;;;;;;;;;4993228;28;20195;-87
2024/01/30 03:13:15;;;;;;;19.03;4.87;;;;;;;;;;4975096;28;20502;-89
2024/01/30 03:15:41;;;;;;;9.33;5.47;;;;;;;;;;4991345;28;20450;-88
2024/01/30 03:18:08;;;;;;;10.07;3.77;;;;;;;;;;4976783;28;20442;-87
2024/01/30 03:20:34;;;;;;;6.03;3.55;;;1.70;99.90;;;;;;4972476;28;20877;-88
2024/01/30 03:23:00;;;;;;;6.50;3.77;;;1.70;99.90;;;;;;4990843;28;20192;-87
2024/01/30 03:25:25;;;;;;;4.45;3.40;;;1.70;99.90;;;;;;4992552;28;20246;-87
2024/01/30 03:27:51;;;;;;;3.63;2.83;;;1.70;99.90;;;;;;4998062;28;20203;-88
2024/01/30 03:30:17;;;;;;;4.70;3.50;;;1.60;99.90;;;;;;4998304;28;20199;-87
2024/01/30 03:32:43;;;;;;;7.13;4.75;;;1.50;99.90;;;;;;4998105;28;20289;-88
2024/01/30 03:35:10;;;;;;;9.63;4.70;;;;;;;;;;4981676;28;20222;-87
2024/01/30 03:37:35;;;;;;;5.35;4.15;;;1.60;99.90;;;;;;4990377;28;20223;-88
2024/01/30 03:40:02;;;;;;;12.20;5.90;;;1.60;99.90;;;;;;4974618;28;20206;-88
2024/01/30 03:42:28;;;;;;;6.47;3.92;;;1.60;99.90;;;;;;4990770;28;20193;-87
2024/01/30 03:44:55;;;;;;;22.10;4.63;;;;;;;;;;5000981;28;20231;-88
2024/01/30 03:47:21;;;;;;;10.10;4.32;;;1.50;99.90;;;;;;4994387;28;20242;-88
2024/01/30 03:49:47;;;;;;;5.95;4.13;;;1.50;99.90;;;;;;4994623;28;20178;-88
2024/01/30 03:52:13;;;;;;;7.13;4.17;;;;;;;;;;4991465;28;20190;-87
2024/01/30 03:54:39;;;;;;;14.73;3.30;;;;;;;;;;4994836;28;20457;-87
2024/01/30 03:57:05;;;;;;;6.63;3.03;;;1.40;99.90;;;;;;4999240;28;20197;-88
2024/01/30 03:59:31;;;;;;;5.25;3.35;;;1.40;99.90;;;;;;4981981;28;20277;-87
2024/01/30 04:01:56;;;;;;;10.50;3.70;;;;;;;;;;4994136;28;20241;-88
2024/01/30 04:04:23;;;;;;;4.47;3.57;;;;;;;;;;4992090;28;21240;-87
2024/01/30 04:06:49;;;;;;;4.10;2.63;;;;;;;;;;4996596;28;20446;-88
2024/01/30 04:09:15;;;;;;;3.05;2.17;;;;;;;;;;4994520;28;20230;-87
2024/01/30 04:11:42;;;;;;;14.38;3.20;;;;;;;;;;4991673;28;20214;-87
2024/01/30 04:14:08;;;;;;;3.58;2.92;;;;;;;;;;4990250;28;20238;-87
2024/01/30 04:16:34;;;;;;;4.55;2.25;;;;;;;;;;4991480;28;21437;-87
2024/01/30 04:19:00;;;;;;;3.10;2.60;;;;;;;;;;4976111;28;20207;-87
2024/01/30 04:21:25;;;;;;;4.20;3.43;;;;;;;;;;4996309;28;20450;-87
2024/01/30 04:23:52;;;;;;;12.87;4.93;;;;;;;;;;4976156;28;20462;-88
2024/01/30 04:26:18;;;;;;;16.63;6.20;;;;;;;;;;4977175;28;20507;-88
2024/01/30 04:28:45;;;;;;;11.32;5.40;;;1.40;99.90;;;;;;4994576;28;20445;-88
2024/01/30 04:31:11;;;;;;;9.68;5.13;;;1.40;99.90;;;;;;4992928;28;20191;-87
2024/01/30 04:33:37;;;;;;;6.50;3.63;;;;;;;;;;4992781;28;20251;-88
2024/01/30 04:36:03;;;;;;;3.95;3.38;;;;;;;;;;4998784;28;20426;-87
2024/01/30 04:38:29;;;;;;;8.70;3.30;;;;;;;;;;4996986;28;20191;-88
2024/01/30 04:40:55;;;;;;;4.05;3.17;;;;;;;;;;4998041;28;20314;-88
2024/01/30 04:43:21;;;;;;;4.97;3.30;;;;;;;;;;4976655;28;20741;-87
2024/01/30 04:45:47;;;;;;;3.37;3.07;;;;;;;;;;4974053;28;21815;-87
2024/01/30 04:48:13;;;;;;;6.70;3.85;;;;;;;;;;4992465;28;20516;-88
2024/01/30 04:50:39;;;;;;;7.13;4.67;;;;;;;;;;4992244;28;20573;-87
2024/01/30 04:53:05;;;;;;;3.70;3.38;;;;;;;;;;4974023;28;20520;-88
2024/01/30 04:55:31;;;;;;;9.67;5.33;;;;;;;;;;4990406;28;20409;-85
2024/01/30 04:57:57;;;;;;;8.40;4.10;;;;;;;;;;5001740;28;20446;-87
2024/01/30 05:00:23;;;;;;;6.80;3.83;;;;;;;;;;5005386;28;20469;-88
2024/01/30 05:02:49;;;;;;;9.10;5.70;;;;;;;;;;4980872;28;20973;-87
2024/01/30 05:05:16;;;;;;;7.80;4.37;;;;;;;;;;4994946;28;20237;-87
2024/01/30 05:07:42;;;;;;;6.10;3.33;;;0.80;99.90;;;;;;4993679;28;20438;-87
2024/01/30 05:10:08;;;;;;;6.67;3.60;;;;;;;;;;4992041;28;20202;-87
2024/01/30 05:12:34;;;;;;;7.88;4.45;;;;;;;;;;4989389;28;20182;-89
2024/01/30 05:15:00;;;;;;;10.45;3.85;;;;;;;;;;4975822;28;20461;-86
2024/01/30 05:17:26;;;;;;;5.00;3.87;;;;;;;;;;4992891;28;20202;-86
2024/01/30 05:19:52;;;;;;;5.07;3.67;;;;;;;;;;4987698;28;20553;-87
2024/01/30 05:22:18;;;;;;;5.75;3.70;;;0.80;99.90;;;;;;4971470;28;20476;-88
2024/01/30 05:24:44;;;;;;;14.00;4.13;;;;;;;;;;4995773;28;20593;-89
2024/01/30 05:27:10;;;;;;;7.73;4.33;;;;;;;;;;4979297;28;20282;-89
2024/01/30 05:29:36;;;;;;;7.05;4.35;;;;;;;;;;4981966;28;20465;-86
2024/01/30 05:32:03;;;;;;;5.10;4.27;;;0.90;99.90;;;;;;4998957;28;20213;-88
2024/01/30 05:34:28;;;;;;;14.77;6.75;;;;;;;;;;5002449;28;20463;-88
2024/01/30 05:36:54;;;;;;;6.03;4.10;;;;;;;;;;4998451;28;20482;-87
2024/01/30 05:39:20;;;;;;;8.70;3.90;;;;;;;;;;5001161;28;20493;-87
2024/01/30 05:41:46;;;;;;;7.90;4.60;;;;;;;;;;4982338;28;20806;-89
2024/01/30 05:44:12;;;;;;;11.37;5.97;;;;;;;;;;5001767;28;20454;-88
2024/01/30 05:46:38;;;;;;;10.05;6.72;;;1.00;99.90;;;;;;4977932;28;21267;-89
2024/01/30 05:49:04;;;;;;;11.50;6.47;;;;;;;;;;4992073;28;20180;-87
2024/01/30 05:51:30;;;;;;;11.23;5.15;;;;;;;;;;4974883;28;20183;-88
2024/01/30 05:53:56;;;;;;;7.93;5.60;;;;;;;;;;4994191;28;20266;-88
2024/01/30 05:56:22;;;;;;;6.30;4.40;;;1.00;99.90;;;;;;4988533;28;20888;-88
2024/01/30 05:58:47;;;;;;;5.05;4.22;;;2.40;99.90;;;;;;4988357;28;20442;-88
2024/01/30 06:01:13;;;;;;;8.63;4.40;;;0.90;99.90;;;;;;4984298;28;20358;-88
2024/01/30 06:03:39;;;;;;;5.77;4.07;;;0.90;99.90;;;;;;4988307;28;20231;-89
2024/01/30 06:06:05;;;;;;;11.40;4.60;;;;;;;;;;4991299;28;20191;-87
2024/01/30 06:08:32;;;;;;;12.57;4.47;;;;;;;;;;4989324;28;20191;-88
2024/01/30 06:10:58;;;;;;;12.37;6.23;;;;;;;;;;4976168;28;20444;-88
2024/01/30 06:13:24;;;;;;;10.30;4.93;;;;;;;;;;5004803;28;20444;-87
2024/01/30 06:15:50;;;;;;;9.60;5.37;;;;;;;;;;4991463;28;20481;-88
2024/01/30 06:18:16;;;;;;;8.60;4.50;;;;;;;;;;4989467;28;20450;-88
2024/01/30 06:20:41;;;;;;;9.47;5.17;;;;;;;;;;4990672;28;20528;-88
2024/01/30 06:23:07;;;;;;;9.83;4.30;;;;;;;;;;4993976;28;20482;-88
2024/01/30 06:25:33;;;;;;;7.37;3.40;;;;;;;;;;4975916;28;20461;-88
2024/01/30 06:27:59;;;;;;;6.27;2.67;;;1.00;99.90;;;;;;4979912;28;20449;-88
2024/01/30 06:30:25;;;;;;;3.83;3.23;;;;;;;;;;4987503;28;20590;-88
2024/01/30 06:32:51;;;;;;;20.33;6.30;;;;;;;;;;4982299;28;20489;-87
2024/01/30 06:35:17;;;;;;;6.57;3.90;;;;;;;;;;4978729;28;20469;-88
2024/01/30 06:37:43;;;;;;;6.47;4.57;;;0.80;99.90;;;;;;4987918;28;20447;-87
2024/01/30 06:40:09;;;;;;;14.37;4.80;;;;;;;;;;4966184;28;20214;-89
2024/01/30 06:42:35;;;;;;;5.50;4.07;;;;;;;;;;4969199;28;20229;-89
2024/01/30 06:45:01;;;;;;;7.40;4.70;;;;;;;;;;4988976;28;20516;-88
2024/01/30 06:47:28;;;;;;;14.02;6.40;;;;;;;;;;4985028;28;20460;-88
2024/01/30 06:49:54;;;;;;;12.63;5.47;;;;;;;;;;4989216;28;20187;-88
2024/01/30 06:52:20;;;;;;;14.65;6.80;;;;;;;;;;4966921;28;20494;-88
2024/01/30 06:54:46;;;;;;;6.67;4.60;;;1.00;99.90;;;;;;4982720;28;20222;-88
2024/01/30 06:57:11;;;;;;;6.90;4.17;;;1.10;99.90;;;;;;4982694;28;20458;-88
2024/01/30 06:59:43;;;;;;;15.53;5.73;;;1.10;99.90;;;;;;4966317;28;20205;-88
2024/01/30 07:02:09;;;;;;;5.72;4.47;;;1.10;99.90;;;;;;4967183;28;20421;-87
2024/01/30 07:04:35;;;;;;;42.47;14.95;;;1.10;99.90;;;;;;4983745;28;20257;-88
2024/01/30 07:07:00;;;;;;;78.13;27.20;;;1.10;99.90;;;;;;4983273;28;20573;-88
2024/01/30 07:09:26;;;;;;;34.30;15.47;;;1.00;99.90;;;;;;4980337;28;20530;-86
2024/01/30 07:11:55;;;;;;;25.07;12.20;;;1.10;99.90;;;;;;4984282;28;20762;-88
2024/01/30 07:14:20;;;;;;;8.25;5.85;;;1.20;99.90;;;;;;4969045;28;20326;-88
2024/01/30 07:16:46;;;;;;;9.43;5.20;;;1.20;99.90;;;;;;4985172;28;20202;-88
2024/01/30 07:19:11;;;;;;;6.90;4.53;;;1.20;99.90;;;;;;4987254;28;20198;-87
2024/01/30 07:21:38;;;;;;;8.23;5.50;;;1.20;99.90;;;;;;4984583;28;20187;-87
2024/01/30 07:24:04;;;;;;;11.88;5.72;;;1.40;99.90;;;;;;4985412;28;20206;-88
2024/01/30 07:26:31;;;;;;;7.80;5.40;;;1.40;99.90;;;;;;4993680;28;20183;-88
2024/01/30 07:28:57;;;;;;;11.88;7.25;;;1.50;99.90;;;;;;4976925;28;20207;-87
2024/01/30 07:31:23;;;;;;;10.87;5.43;;;1.60;99.90;;;;;;4981999;28;20202;-88
2024/01/30 07:33:49;;;;;;;12.30;6.70;;;1.80;99.90;;;;;;4982551;28;20203;-89
2024/01/30 07:36:15;;;;;;;17.73;6.88;;;1.80;99.90;;;;;;4979910;28;20207;-88
2024/01/30 07:38:41;;;;;;;7.30;4.47;;;;;;;;;;4975674;28;20274;-87
2024/01/30 07:41:06;;;;;;;13.93;5.80;;;2.10;99.90;;;;;;4979657;28;20211;-88
2024/01/30 07:43:33;;;;;;;9.83;6.70;;;2.40;99.90;;;;;;4959716;28;20441;-88
2024/01/30 07:46:00;;;;;;;15.25;6.88;;;2.40;99.90;;;;;;4980588;28;20184;-88
2024/01/30 07:48:26;;;;;;;8.48;5.50;;;2.60;99.90;;;;;;4978408;28;20232;-88
2024/01/30 07:50:53;;;;;;;13.53;7.80;;;;;;;;;;4981071;28;20866;-88
2024/01/30 07:53:18;;;;;;;11.45;5.25;;;3.00;99.90;;;;;;4961652;28;20197;-88
2024/01/30 07:55:46;;;;;;;12.33;6.93;;;3.20;99.90;;;;;;4981967;28;20203;-88
2024/01/30 07:58:12;;;;;;;20.33;9.57;;;3.70;99.90;;;;;;4981897;28;20201;-89
2024/01/30 08:00:38;;;;;;;6.53;3.70;;;;;;;;;;4985871;28;20211;-89
2024/01/30 08:03:06;;;;;;;8.63;3.47;;;4.80;99.90;;;;;;4968428;28;20285;-88
2024/01/30 08:05:32;;;;;;;16.27;8.10;;;5.00;99.90;;;;;;4983295;28;20207;-88
2024/01/30 08:07:57;;;;;;;17.40;8.37;;;5.60;99.90;;;;;;4977997;28;21358;-88
2024/01/30 08:10:23;;;;;;;24.77;6.00;;;;;;;;;;4981249;28;20203;-88
2024/01/30 08:12:49;;;;;;;10.10;6.60;;;5.90;99.90;;;;;;4975988;28;20188;-88
2024/01/30 08:15:14;;;;;;;15.80;5.90;;;6.00;99.90;;;;;;4979510;28;20532;-89
2024/01/30 08:17:40;;;;;;;20.90;7.03;;;;;;;;;;4978394;28;20225;-89
2024/01/30 08:20:08;;;;;;;10.70;5.60;;;6.70;99.90;;;;;;4978190;28;20299;-89
2024/01/30 08:22:33;;;;;;;9.30;4.63;;;7.00;99.90;;;;;;4962939;28;20505;-89
2024/01/30 08:24:59;;;;;;;5.33;4.80;;;8.10;99.90;;;;;;4976515;28;20767;-88
2024/01/30 08:27:25;;;;;;;9.43;5.40;;;;;;;;;;4980104;28;20186;-89
2024/01/30 08:29:51;;;;;;;10.70;5.83;;;;;;;;;;4965911;28;20298;-90
2024/01/30 08:32:19;;;;;;;9.50;5.53;;;9.20;99.90;;;;;;4969510;28;20825;-89
2024/01/30 08:34:45;;;;;;;24.48;7.65;;;;;;;;;;4984983;28;20473;-89
2024/01/30 08:37:11;;;;;;;9.07;6.23;;;;;;;;;;4986206;28;20178;-89
2024/01/30 08:39:37;;;;;;;17.17;4.27;;;8.10;99.90;;;;;;4984426;28;20477;-89
2024/01/30 08:42:03;;;;;;;12.77;5.72;;;8.00;99.90;;;;;;5004666;28;20438;-89
2024/01/30 08:44:29;;;;;;;9.23;5.20;;;;;;;;;;4986790;28;20708;-89
2024/01/30 08:46:54;;;;;;;10.30;6.57;;;7.60;99.90;;;;;;4986124;28;20282;-87
2024/01/30 08:49:21;;;;;;;8.33;6.00;;;;;;;;;;4983818;28;21059;-89
2024/01/30 08:51:50;;;;;;;11.20;6.25;;;7.00;99.90;;;;;;4987964;28;20193;-89
2024/01/30 08:54:16;;;;;;;10.30;5.68;;;;;;;;;;4988756;28;20210;-89
2024/01/30 08:56:42;;;;;;;13.33;6.73;;;;;;;;;;4966884;28;20199;-88
2024/01/30 08:59:07;;;;;;;8.30;6.70;;;6.50;99.90;;;;;;4968884;28;20977;-89
2024/01/30 09:01:33;;;;;;;7.57;6.07;;;6.50;99.90;;;;;;4982834;28;20454;-88
2024/01/30 09:03:59;;;;;;;12.83;5.20;;;;;;;;;;4983336;28;20216;-88
2024/01/30 09:06:27;;;;;;;13.67;6.20;;;;;;;;;;4965809;28;20199;-89
2024/01/30 09:08:53;;;;;;;7.97;4.90;;;;;;;;;;4983359;28;20458;-88
2024/01/30 09:11:19;;;;;;;10.97;6.57;;;8.70;99.90;;;;;;4961477;28;20759;-89
2024/01/30 09:13:45;;;;;;;17.13;5.50;;;;;;;;;;4981421;28;20469;-89
2024/01/30 09:16:11;;;;;;;8.70;5.23;;;;;;;;;;4977645;28;21352;-88
2024/01/30 09:18:37;;;;;;;5.80;3.70;;;;;;;;;;4978942;28;20480;-89
2024/01/30 09:21:03;;;;;;;7.70;5.30;;;;;;;;;;4978522;28;20512;-89
2024/01/30 09:23:29;;;;;;;8.77;5.60;;;;;;;;;;4980828;28;20450;-88
2024/01/30 09:25:55;;;;;;;8.77;5.47;;;;;;;;;;4965117;28;20441;-87
2024/01/30 09:28:21;;;;;;;16.77;6.57;;;;;;;;;;4966716;28;21088;-87
2024/01/30 09:30:46;;;;;;;8.07;5.93;;;;;;;;;;4969228;28;20458;-88
2024/01/30 09:33:12;;;;;;;12.30;5.47;;;;;;;;;;4989662;28;21047;-88
2024/01/30 09:35:38;;;;;;;6.50;4.83;;;;;;;;;;4984300;28;20458;-88
2024/01/30 09:38:04;;;;;;;13.73;5.73;;;;;;;;;;4964661;28;21273;-89
2024/01/30 09:40:30;;;;;;;5.07;4.57;;;;;;;;;;4970137;28;20477;-89
2024/01/30 09:42:56;;;;;;;6.83;4.80;;;;;;;;;;4979120;28;20446;-88
2024/01/30 09:45:29;;;;;;;5.40;4.80;;;9.80;99.90;;;;;;4968622;28;20512;-89
2024/01/30 09:47:56;;;;;;;8.85;5.50;;;10.10;99.90;;;;;;4965981;28;21296;-89
2024/01/30 09:50:37;;;;;;;11.00;4.72;;;;;;;;;;4984412;28;20290;-88
2024/01/30 09:53:04;;;;;;;7.03;5.32;;;9.40;99.90;;;;;;4986451;28;20188;-89
2024/01/30 09:55:30;;;;;;;6.70;4.55;;;;;;;;;;4991936;28;20230;-90
2024/01/30 09:57:56;;;;;;;10.77;5.40;;;;;;;;;;4992878;28;20195;-88
2024/01/30 10:00:27;;;;;;;9.47;5.67;;;;;;;;;;4971682;28;20273;-89
2024/01/30 10:02:53;;;;;;;4.82;3.97;;;;;;;;;;4990871;28;20721;-89
2024/01/30 10:05:20;;;;;;;10.38;5.50;;;8.50;99.90;;;;;;4966032;28;20214;-89
2024/01/30 10:07:56;;;;;;;9.98;5.05;;;9.60;99.90;;;;;;4988221;28;20256;-89
2024/01/30 10:10:23;;;;;;;8.77;4.20;;;8.50;99.90;;;;;;4984403;28;20630;-88
2024/01/30 10:12:49;;;;;;;9.80;5.90;;;;;;;;;;4987092;28;20861;-89
2024/01/30 10:15:15;;;;;;;7.88;6.20;;;8.20;99.90;;;;;;4986073;28;20218;-89
2024/01/30 10:17:41;;;;;;;8.43;5.50;;;;;;;;;;4984116;28;20223;-88
2024/01/30 10:20:10;;;;;;;11.43;6.10;;;8.10;99.90;;;;;;4985933;28;20729;-88
2024/01/30 10:22:36;;;;;;;12.85;5.15;;;;;;;;;;4985236;28;20558;-88
2024/01/30 10:25:02;;;;;;;7.77;5.70;;;;;;;;;;4968429;28;20238;-88
2024/01/30 10:27:29;;;;;;;10.90;5.93;;;;;;;;;;4985657;28;20460;-90
2024/01/30 10:29:55;;;;;;;10.52;5.30;;;;;;;;;;4988648;28;20190;-88
2024/01/30 10:32:21;;;;;;;8.13;4.45;;;;;;;;;;4989037;28;20190;-89
2024/01/30 10:34:48;;;;;;;12.70;5.80;;;;;;;;;;4988739;28;20221;-88
2024/01/30 10:37:16;;;;;;;8.02;5.28;;;7.30;99.90;;;;;;4984359;28;20190;-87
2024/01/30 10:39:43;;;;;;;9.63;5.65;;;7.20;99.90;;;;;;4987989;28;20211;-88
2024/01/30 10:42:13;;;;;;;16.67;6.80;;;7.10;99.90;;;;;;4985320;28;20183;-88
2024/01/30 10:45:08;;;;;;;6.43;5.07;;;7.50;99.90;;;;;;4987116;28;20702;-86
2024/01/30 10:47:36;;;;;;;5.80;4.90;;;7.60;99.90;;;;;;4985858;28;20810;-88
2024/01/30 10:50:03;;;;;;;8.38;4.93;;;;;;;;;;4986922;28;20195;-88
2024/01/30 10:52:29;;;;;;;10.68;5.50;;;;;;;;;;4961680;28;20197;-87
2024/01/30 10:54:56;;;;;;;9.52;5.75;;;;;;;;;;4970057;28;20824;-88
2024/01/30 10:57:24;;;;;;;6.75;6.07;;;9.20;99.90;;;;;;4984705;28;20270;-88
2024/01/30 10:59:50;;;;;;;8.90;6.00;;;;;;;;;;4964089;28;20273;-88
2024/01/30 11:02:16;;;;;;;12.00;5.75;;;;;;;;;;4968684;28;20648;-88
2024/01/30 11:04:42;;;;;;;12.10;6.80;;;;;;;;;;4980641;28;20277;-88
2024/01/30 11:07:17;;;;;;;10.37;6.30;;;9.80;99.90;;;;;;4965344;28;20433;-88
2024/01/30 11:09:50;;;;;;;11.77;7.90;;;9.90;99.90;;;;;;4992059;28;20823;-89
2024/01/30 11:12:17;;;;;;;14.52;6.28;;;;;;;;;;5000303;28;20661;-88
2024/01/30 11:14:43;;;;;;;11.73;4.78;;;;;;;;;;4989788;28;20203;-88
2024/01/30 11:17:12;;;;;;;8.30;5.90;;;9.40;99.90;;;;;;4984616;28;20197;-89
2024/01/30 11:19:38;;;;;;;9.10;5.30;;;8.90;99.90;;;;;;4982216;28;20293;-89
2024/01/30 11:22:05;;;;;;;12.57;6.17;;;;;;;;;;4963191;28;20271;-88
2024/01/30 11:24:30;;;;;;;11.30;6.32;;;8.10;99.90;;;;;;4986785;28;20207;-88
2024/01/30 11:26:59;;;;;;;10.30;6.20;;;7.90;99.90;;;;;;4984596;28;20842;-88
2024/01/30 11:29:26;;;;;;;10.18;6.70;;;7.70;99.90;;;;;;4973304;28;20875;-88
2024/01/30 11:31:56;;;;;;;9.15;6.45;;;7.60;99.90;;;;;;4988510;28;20203;-88
2024/01/30 11:34:23;;;;;;;15.23;7.32;;;7.70;99.90;;;;;;4967271;28;20217;-88
2024/01/30 11:36:58;;;;;;;6.32;4.80;;;7.60;99.90;;;;;;4980668;28;20294;-88
2024/01/30 11:39:26;;;;;;;8.73;5.93;;;7.50;99.90;;;;;;4982012;28;20198;-89
2024/01/30 11:41:53;;;;;;;8.57;6.13;;;;;;;;;;4983796;28;20192;-88
2024/01/30 11:44:20;;;;;;;11.48;4.55;;;8.40;99.90;;;;;;4967258;28;20720;-88
2024/01/30 11:46:46;;;;;;;8.13;6.63;;;;;;;;;;4985858;28;20183;-87
2024/01/30 11:49:12;;;;;;;14.15;6.93;;;8.70;99.90;;;;;;4982289;28;20215;-88
2024/01/30 11:51:38;;;;;;;8.43;6.57;;;;;;;;;;4982749;28;20935;-87
2024/01/30 11:54:04;;;;;;;10.82;5.18;;;;;;;;;;4985883;28;20215;-89
2024/01/30 11:56:29;;;;;;;13.48;6.20;;;8.90;99.90;;;;;;4981353;28;20787;-88
2024/01/30 11:58:55;;;;;;;11.40;6.53;;;8.80;99.90;;;;;;4982725;28;20214;-88
2024/01/30 12:01:20;;;;;;;12.90;7.77;;;8.90;99.90;;;;;;4986374;28;20238;-88
2024/01/30 12:03:50;;;;;;;14.90;5.33;;;9.10;99.90;;;;;;4982527;28;20203;-88
2024/01/30 12:06:16;;;;;;;13.48;6.30;;;9.10;99.90;;;;;;4988050;28;20205;-89
2024/01/30 12:08:42;;;;;;;7.17;5.93;;;;;;;;;;4968741;28;20195;-88
2024/01/30 12:11:08;;;;;;;11.85;6.50;;;;;;;;;;4963779;28;20442;-89
2024/01/30 12:13:34;;;;;;;11.20;6.60;;;;;;;;;;4969751;28;20205;-88
2024/01/30 12:16:03;;;;;;;9.38;6.90;;;9.70;99.90;;;;;;4986235;28;20442;-88
2024/01/30 12:18:28;;;;;;;11.60;6.85;;;;;;;;;;4987376;28;20191;-89
2024/01/30 12:21:01;;;;;;;10.03;6.40;;;9.70;99.90;;;;;;4985424;28;20864;-88
2024/01/30 12:23:30;;;;;;;7.43;4.88;;;9.90;99.90;;;;;;4990754;28;20461;-88
2024/01/30 12:25:56;;;;;;;7.47;6.20;;;10.20;99.90;;;;;;4986448;28;20226;-89
2024/01/30 12:28:22;;;;;;;13.00;5.80;;;;;;;;;;4988713;28;20222;-88
2024/01/30 12:30:48;;;;;;;8.87;6.53;;;;;;;;;;4967896;28;20442;-89
2024/01/30 12:33:18;;;;;;;9.40;5.60;;;10.80;99.90;;;;;;4978944;28;20434;-89
2024/01/30 12:35:47;;;;;;;7.50;5.93;;;10.60;99.90;;;;;;4985705;28;20516;-90
2024/01/30 12:38:14;;;;;;;14.95;6.32;;;;;;;;;;4985668;28;20195;-88
2024/01/30 12:40:40;;;;;;;15.20;7.13;;;;;;;;;;4989779;28;20207;-88
2024/01/30 12:43:06;;;;;;;14.80;7.20;;;;;;;;;;4985691;28;20833;-89
2024/01/30 12:45:31;;;;;;;11.15;5.95;;;;;;;;;;4987860;28;20846;-88
2024/01/30 12:47:58;;;;;;;7.07;5.97;;;;;;;;;;4982268;28;20197;-88
2024/01/30 12:50:24;;;;;;;6.65;5.60;;;;;;;;;;4987168;28;20485;-87
2024/01/30 12:52:50;;;;;;;11.50;6.88;;;;;;;;;;4969460;28;20199;-88
2024/01/30 12:55:16;;;;;;;9.57;6.30;;;;;;;;;;4981458;28;20211;-87
2024/01/30 12:57:42;;;;;;;10.68;4.93;;;;;;;;;;4962956;28;20203;-87
2024/01/30 13:00:09;;;;;;;11.73;7.05;;;11.80;99.90;;;;;;4985461;28;20203;-88
2024/01/30 13:02:36;;;;;;;10.35;6.25;;;12.10;99.90;;;;;;4967668;28;20195;-87
2024/01/30 13:05:05;;;;;;;10.63;6.05;;;12.30;99.90;;;;;;5002519;28;20230;-87
2024/01/30 13:07:31;;;;;;;10.60;6.50;;;;;;;;;;4964899;28;20190;-88
2024/01/30 13:10:03;;;;;;;8.77;5.80;;;;;;;;;;4977564;28;20446;-87
2024/01/30 13:12:29;;;;;;;9.18;6.85;;;;;;;;;;4977749;28;20226;-87
2024/01/30 13:14:55;;;;;;;13.57;7.40;;;;;;;;;;4983305;28;20235;-88
2024/01/30 13:17:21;;;;;;;9.93;6.97;;;;;;;;;;4964728;28;20458;-88
2024/01/30 13:19:49;;;;;;;12.40;6.80;;;;;;;;;;4983092;28;20466;-88
2024/01/30 13:22:15;;;;;;;15.20;7.93;;;12.70;99.90;;;;;;4971482;28;20860;-89
2024/01/30 13:24:41;;;;;;;11.43;7.10;;;;;;;;;;4987371;28;20461;-87
2024/01/30 13:27:08;;;;;;;10.17;5.73;;;;;;;;;;4967523;28;20473;-87
2024/01/30 13:29:34;;;;;;;11.30;7.27;;;;;;;;;;4989548;28;20442;-87
2024/01/30 13:32:00;;;;;;;9.77;6.60;;;;;;;;;;4989042;28;20511;-87
2024/01/30 13:34:26;;;;;;;10.18;5.82;;;;;;;;;;4989943;28;20474;-89
2024/01/30 13:36:52;;;;;;;14.33;7.27;;;;;;;;;;4971764;28;20534;-88
2024/01/30 13:39:18;;;;;;;6.93;6.05;;;;;;;;;;5004432;28;20457;-87
2024/01/30 13:41:44;;;;;;;14.65;6.93;;;;;;;;;;4969990;28;20187;-88
2024/01/30 13:44:10;;;;;;;9.80;4.90;;;;;;;;;;4970003;28;20204;-88
2024/01/30 13:46:37;;;;;;;12.00;5.80;;;;;;;;;;4985358;28;20524;-88
2024/01/30 13:49:03;;;;;;;12.13;5.15;;;;;;;;;;4989759;28;20435;-88